sensor_id;sensor_type;location;lat;lon;timestamp;pressure;altitude;pressure_sealevel;temperature;humidity
76728;BME280;65652;53.132;18.026;2023-04-24T00:00:29;100135.79;;;14.91;69.40
76728;BME280;65652;53.132;18.026;2023-04-24T00:03:17;100136.22;;;14.86;69.49
76728;BME280;65652;53.132;18.026;2023-04-24T00:05:46;100135.56;;;14.82;69.60
76728;BME280;65652;53.132;18.026;2023-04-24T00:08:13;100136.09;;;14.79;69.57
76728;BME280;65652;53.132;18.026;2023-04-24T00:10:39;100138.16;;;14.77;69.83
76728;BME280;65652;53.132;18.026;2023-04-24T00:13:05;100139.96;;;14.75;69.69
76728;BME280;65652;53.132;18.026;2023-04-24T00:15:32;100139.66;;;14.74;69.93
76728;BME280;65652;53.132;18.026;2023-04-24T00:17:58;100134.17;;;14.73;69.91
76728;BME280;65652;53.132;18.026;2023-04-24T00:20:27;100123.61;;;14.72;69.97
76728;BME280;65652;53.132;18.026;2023-04-24T00:22:58;100118.27;;;14.70;70.16
76728;BME280;65652;53.132;18.026;2023-04-24T00:25:24;100118.79;;;14.67;70.13
76728;BME280;65652;53.132;18.026;2023-04-24T00:27:51;100115.44;;;14.66;70.33
76728;BME280;65652;53.132;18.026;2023-04-24T00:30:17;100119.17;;;14.64;70.40
76728;BME280;65652;53.132;18.026;2023-04-24T00:32:43;100119.02;;;14.62;70.21
76728;BME280;65652;53.132;18.026;2023-04-24T00:35:09;100115.59;;;14.61;70.42
76728;BME280;65652;53.132;18.026;2023-04-24T00:37:36;100113.80;;;14.60;70.48
76728;BME280;65652;53.132;18.026;2023-04-24T00:40:03;100110.10;;;14.58;70.80
76728;BME280;65652;53.132;18.026;2023-04-24T00:42:29;100104.73;;;14.54;70.80
76728;BME280;65652;53.132;18.026;2023-04-24T00:44:56;100104.09;;;14.48;70.93
76728;BME280;65652;53.132;18.026;2023-04-24T00:47:22;100098.98;;;14.45;71.11
76728;BME280;65652;53.132;18.026;2023-04-24T00:49:49;100094.80;;;14.43;71.13
76728;BME280;65652;53.132;18.026;2023-04-24T00:52:15;100091.29;;;14.41;71.06
76728;BME280;65652;53.132;18.026;2023-04-24T00:54:43;100095.61;;;14.39;71.18
76728;BME280;65652;53.132;18.026;2023-04-24T00:57:13;100099.79;;;14.35;71.27
76728;BME280;65652;53.132;18.026;2023-04-24T00:59:41;100099.23;;;14.34;71.28
76728;BME280;65652;53.132;18.026;2023-04-24T01:02:09;100101.47;;;14.33;71.48
76728;BME280;65652;53.132;18.026;2023-04-24T01:04:37;100097.64;;;14.30;71.45
76728;BME280;65652;53.132;18.026;2023-04-24T01:07:04;100096.58;;;14.29;71.72
76728;BME280;65652;53.132;18.026;2023-04-24T01:09:38;100097.80;;;14.27;71.67
76728;BME280;65652;53.132;18.026;2023-04-24T01:12:06;100095.09;;;14.25;71.78
76728;BME280;65652;53.132;18.026;2023-04-24T01:14:33;100091.20;;;14.23;71.96
76728;BME280;65652;53.132;18.026;2023-04-24T01:16:59;100093.66;;;14.22;71.78
76728;BME280;65652;53.132;18.026;2023-04-24T01:19:27;100091.02;;;14.19;71.94
76728;BME280;65652;53.132;18.026;2023-04-24T01:21:53;100088.64;;;14.18;72.09
76728;BME280;65652;53.132;18.026;2023-04-24T01:24:23;100083.39;;;14.18;72.11
76728;BME280;65652;53.132;18.026;2023-04-24T01:26:49;100080.36;;;14.16;72.15
76728;BME280;65652;53.132;18.026;2023-04-24T01:29:16;100079.33;;;14.15;72.31
76728;BME280;65652;53.132;18.026;2023-04-24T01:31:43;100076.44;;;14.12;72.40
76728;BME280;65652;53.132;18.026;2023-04-24T01:34:10;100076.84;;;14.10;72.45
76728;BME280;65652;53.132;18.026;2023-04-24T01:36:37;100079.28;;;14.09;72.58
76728;BME280;65652;53.132;18.026;2023-04-24T01:39:05;100078.77;;;14.08;72.46
76728;BME280;65652;53.132;18.026;2023-04-24T01:41:31;100074.48;;;14.07;72.60
76728;BME280;65652;53.132;18.026;2023-04-24T01:43:58;100078.41;;;14.07;72.69
76728;BME280;65652;53.132;18.026;2023-04-24T01:46:24;100075.12;;;14.06;72.76
76728;BME280;65652;53.132;18.026;2023-04-24T01:48:51;100071.89;;;14.06;72.78
76728;BME280;65652;53.132;18.026;2023-04-24T01:51:19;100072.65;;;14.06;72.78
76728;BME280;65652;53.132;18.026;2023-04-24T01:53:45;100070.69;;;14.06;72.86
76728;BME280;65652;53.132;18.026;2023-04-24T01:56:11;100069.16;;;14.05;73.10
76728;BME280;65652;53.132;18.026;2023-04-24T01:58:38;100069.95;;;14.05;72.99
76728;BME280;65652;53.132;18.026;2023-04-24T02:01:06;100068.55;;;14.03;73.07
76728;BME280;65652;53.132;18.026;2023-04-24T02:03:32;100069.83;;;14.03;73.15
76728;BME280;65652;53.132;18.026;2023-04-24T02:05:59;100069.02;;;14.02;73.24
76728;BME280;65652;53.132;18.026;2023-04-24T02:08:25;100069.30;;;14.01;73.13
76728;BME280;65652;53.132;18.026;2023-04-24T02:10:51;100063.11;;;14.01;73.32
76728;BME280;65652;53.132;18.026;2023-04-24T02:13:17;100062.38;;;14.01;73.25
76728;BME280;65652;53.132;18.026;2023-04-24T02:15:43;100062.20;;;14.02;73.27
76728;BME280;65652;53.132;18.026;2023-04-24T02:18:09;100061.96;;;14.03;73.29
76728;BME280;65652;53.132;18.026;2023-04-24T02:20:37;100060.32;;;14.04;73.38
76728;BME280;65652;53.132;18.026;2023-04-24T02:23:03;100054.54;;;14.04;73.31
76728;BME280;65652;53.132;18.026;2023-04-24T02:25:29;100047.48;;;14.06;73.42
76728;BME280;65652;53.132;18.026;2023-04-24T02:27:56;100045.80;;;14.03;73.50
76728;BME280;65652;53.132;18.026;2023-04-24T02:30:22;100046.11;;;14.03;73.49
76728;BME280;65652;53.132;18.026;2023-04-24T02:32:48;100043.00;;;14.03;73.44
76728;BME280;65652;53.132;18.026;2023-04-24T02:35:15;100046.33;;;14.03;73.56
76728;BME280;65652;53.132;18.026;2023-04-24T02:37:41;100046.05;;;14.04;73.52
76728;BME280;65652;53.132;18.026;2023-04-24T02:40:11;100044.77;;;14.05;73.53
76728;BME280;65652;53.132;18.026;2023-04-24T02:42:37;100043.77;;;14.04;73.59
76728;BME280;65652;53.132;18.026;2023-04-24T02:45:04;100040.58;;;14.02;73.67
76728;BME280;65652;53.132;18.026;2023-04-24T02:47:30;100035.02;;;14.03;73.69
76728;BME280;65652;53.132;18.026;2023-04-24T02:49:57;100031.91;;;14.02;73.69
76728;BME280;65652;53.132;18.026;2023-04-24T02:52:23;100027.65;;;14.02;73.66
76728;BME280;65652;53.132;18.026;2023-04-24T02:54:49;100029.16;;;14.03;73.65
76728;BME280;65652;53.132;18.026;2023-04-24T02:57:15;100029.84;;;14.03;73.78
76728;BME280;65652;53.132;18.026;2023-04-24T02:59:42;100026.73;;;14.02;73.55
76728;BME280;65652;53.132;18.026;2023-04-24T03:02:08;100029.39;;;14.02;73.71
76728;BME280;65652;53.132;18.026;2023-04-24T03:04:34;100028.39;;;14.03;73.78
76728;BME280;65652;53.132;18.026;2023-04-24T03:07:00;100027.98;;;14.04;73.72
76728;BME280;65652;53.132;18.026;2023-04-24T03:09:26;100032.95;;;14.02;73.90
76728;BME280;65652;53.132;18.026;2023-04-24T03:11:53;100036.25;;;14.00;73.95
76728;BME280;65652;53.132;18.026;2023-04-24T03:14:19;100032.89;;;13.98;73.86
76728;BME280;65652;53.132;18.026;2023-04-24T03:16:45;100032.15;;;13.98;73.80
76728;BME280;65652;53.132;18.026;2023-04-24T03:19:11;100032.55;;;13.99;73.78
76728;BME280;65652;53.132;18.026;2023-04-24T03:21:45;100030.20;;;14.01;73.88
76728;BME280;65652;53.132;18.026;2023-04-24T03:24:11;100035.17;;;14.03;73.75
76728;BME280;65652;53.132;18.026;2023-04-24T03:26:37;100037.81;;;14.03;73.69
76728;BME280;65652;53.132;18.026;2023-04-24T03:29:18;100041.33;;;14.03;73.47
76728;BME280;65652;53.132;18.026;2023-04-24T03:31:45;100045.09;;;14.03;73.57
76728;BME280;65652;53.132;18.026;2023-04-24T03:34:11;100049.39;;;14.03;73.58
76728;BME280;65652;53.132;18.026;2023-04-24T03:36:38;100052.33;;;14.02;73.62
76728;BME280;65652;53.132;18.026;2023-04-24T03:39:06;100057.17;;;14.01;73.52
76728;BME280;65652;53.132;18.026;2023-04-24T03:41:34;100057.30;;;13.99;73.34
76728;BME280;65652;53.132;18.026;2023-04-24T03:44:09;100053.80;;;13.95;73.38
76728;BME280;65652;53.132;18.026;2023-04-24T03:46:36;100053.11;;;13.92;73.12
76728;BME280;65652;53.132;18.026;2023-04-24T03:49:02;100048.96;;;13.88;73.33
76728;BME280;65652;53.132;18.026;2023-04-24T03:51:31;100044.64;;;13.85;73.73
76728;BME280;65652;53.132;18.026;2023-04-24T03:54:04;100042.67;;;13.82;73.64
76728;BME280;65652;53.132;18.026;2023-04-24T03:56:31;100035.70;;;13.76;73.86
76728;BME280;65652;53.132;18.026;2023-04-24T03:58:57;100031.95;;;13.72;73.88
76728;BME280;65652;53.132;18.026;2023-04-24T04:01:23;100028.43;;;13.68;73.88
76728;BME280;65652;53.132;18.026;2023-04-24T04:04:05;100027.64;;;13.66;74.04
76728;BME280;65652;53.132;18.026;2023-04-24T04:06:32;100023.10;;;13.65;74.15
76728;BME280;65652;53.132;18.026;2023-04-24T04:08:58;100024.70;;;13.67;74.42
76728;BME280;65652;53.132;18.026;2023-04-24T04:11:25;100020.80;;;13.68;74.41
76728;BME280;65652;53.132;18.026;2023-04-24T04:13:51;100014.05;;;13.70;74.17
76728;BME280;65652;53.132;18.026;2023-04-24T04:16:19;100018.73;;;13.74;74.43
76728;BME280;65652;53.132;18.026;2023-04-24T04:18:46;100012.33;;;13.77;74.61
76728;BME280;65652;53.132;18.026;2023-04-24T04:21:13;100013.93;;;13.81;74.65
76728;BME280;65652;53.132;18.026;2023-04-24T04:23:39;100011.83;;;13.83;74.87
76728;BME280;65652;53.132;18.026;2023-04-24T04:26:26;100012.58;;;13.86;74.48
76728;BME280;65652;53.132;18.026;2023-04-24T04:29:07;100013.95;;;13.87;74.23
76728;BME280;65652;53.132;18.026;2023-04-24T04:31:35;100010.15;;;13.89;74.47
76728;BME280;65652;53.132;18.026;2023-04-24T04:34:05;100011.22;;;13.89;74.83
76728;BME280;65652;53.132;18.026;2023-04-24T04:36:32;100007.20;;;13.91;75.06
76728;BME280;65652;53.132;18.026;2023-04-24T04:39:12;100005.70;;;13.93;75.11
76728;BME280;65652;53.132;18.026;2023-04-24T04:41:53;100007.92;;;13.96;75.15
76728;BME280;65652;53.132;18.026;2023-04-24T04:44:20;100004.88;;;13.99;74.90
76728;BME280;65652;53.132;18.026;2023-04-24T04:46:46;100008.48;;;14.02;74.94
76728;BME280;65652;53.132;18.026;2023-04-24T04:49:27;100008.60;;;14.04;75.00
76728;BME280;65652;53.132;18.026;2023-04-24T04:51:54;100008.66;;;14.07;75.06
76728;BME280;65652;53.132;18.026;2023-04-24T04:54:21;100004.45;;;14.11;75.10
76728;BME280;65652;53.132;18.026;2023-04-24T04:56:49;100000.24;;;14.12;74.94
76728;BME280;65652;53.132;18.026;2023-04-24T04:59:16;99993.70;;;14.13;75.05
76728;BME280;65652;53.132;18.026;2023-04-24T05:01:42;99994.18;;;14.15;75.13
76728;BME280;65652;53.132;18.026;2023-04-24T05:04:09;99996.25;;;14.17;75.03
76728;BME280;65652;53.132;18.026;2023-04-24T05:06:37;99992.32;;;14.21;75.15
76728;BME280;65652;53.132;18.026;2023-04-24T05:09:04;99992.69;;;14.24;74.98
76728;BME280;65652;53.132;18.026;2023-04-24T05:11:39;99994.07;;;14.27;74.73
76728;BME280;65652;53.132;18.026;2023-04-24T05:14:06;99992.98;;;14.30;74.87
76728;BME280;65652;53.132;18.026;2023-04-24T05:16:35;99990.05;;;14.33;74.75
76728;BME280;65652;53.132;18.026;2023-04-24T05:19:03;99989.33;;;14.36;74.84
76728;BME280;65652;53.132;18.026;2023-04-24T05:21:34;99990.52;;;14.38;74.69
76728;BME280;65652;53.132;18.026;2023-04-24T05:24:00;99986.73;;;14.37;74.65
76728;BME280;65652;53.132;18.026;2023-04-24T05:26:41;99986.34;;;14.36;74.57
76728;BME280;65652;53.132;18.026;2023-04-24T05:29:08;99982.88;;;14.35;74.55
76728;BME280;65652;53.132;18.026;2023-04-24T05:31:34;99982.98;;;14.34;74.55
76728;BME280;65652;53.132;18.026;2023-04-24T05:34:00;99979.35;;;14.35;74.57
76728;BME280;65652;53.132;18.026;2023-04-24T05:36:26;99987.50;;;14.37;74.62
76728;BME280;65652;53.132;18.026;2023-04-24T05:38:53;99994.20;;;14.41;74.45
76728;BME280;65652;53.132;18.026;2023-04-24T05:41:19;99994.59;;;14.52;74.42
76728;BME280;65652;53.132;18.026;2023-04-24T05:43:47;99985.64;;;14.65;74.13
76728;BME280;65652;53.132;18.026;2023-04-24T05:46:13;99983.52;;;14.78;73.97
76728;BME280;65652;53.132;18.026;2023-04-24T05:48:39;99981.98;;;14.85;73.87
76728;BME280;65652;53.132;18.026;2023-04-24T05:51:05;99976.14;;;14.89;73.89
76728;BME280;65652;53.132;18.026;2023-04-24T05:53:31;99982.53;;;14.93;73.59
76728;BME280;65652;53.132;18.026;2023-04-24T05:55:57;99979.55;;;14.94;73.37
76728;BME280;65652;53.132;18.026;2023-04-24T05:58:24;99979.24;;;14.95;73.33
76728;BME280;65652;53.132;18.026;2023-04-24T06:00:50;99978.55;;;14.98;73.17
76728;BME280;65652;53.132;18.026;2023-04-24T06:03:17;99983.07;;;15.00;73.22
76728;BME280;65652;53.132;18.026;2023-04-24T06:05:43;99984.05;;;15.02;73.16
76728;BME280;65652;53.132;18.026;2023-04-24T06:08:09;99983.15;;;15.04;73.30
76728;BME280;65652;53.132;18.026;2023-04-24T06:10:38;99981.98;;;15.03;73.07
76728;BME280;65652;53.132;18.026;2023-04-24T06:13:05;99982.94;;;15.01;73.23
76728;BME280;65652;53.132;18.026;2023-04-24T06:15:33;99979.13;;;15.06;73.12
76728;BME280;65652;53.132;18.026;2023-04-24T06:18:11;99979.35;;;15.16;73.14
76728;BME280;65652;53.132;18.026;2023-04-24T06:20:38;99972.66;;;15.24;72.99
76728;BME280;65652;53.132;18.026;2023-04-24T06:23:04;99968.95;;;15.36;72.95
76728;BME280;65652;53.132;18.026;2023-04-24T06:25:32;99965.94;;;15.53;72.59
76728;BME280;65652;53.132;18.026;2023-04-24T06:27:59;99966.90;;;15.65;72.17
76728;BME280;65652;53.132;18.026;2023-04-24T06:30:25;99961.88;;;15.77;71.68
76728;BME280;65652;53.132;18.026;2023-04-24T06:32:52;99960.25;;;15.90;71.45
76728;BME280;65652;53.132;18.026;2023-04-24T06:35:18;99952.11;;;16.09;71.32
76728;BME280;65652;53.132;18.026;2023-04-24T06:37:46;99947.92;;;16.25;71.03
76728;BME280;65652;53.132;18.026;2023-04-24T06:40:12;99946.44;;;16.31;70.54
76728;BME280;65652;53.132;18.026;2023-04-24T06:42:38;99947.17;;;16.34;70.55
76728;BME280;65652;53.132;18.026;2023-04-24T06:45:07;99939.98;;;16.41;70.35
76728;BME280;65652;53.132;18.026;2023-04-24T06:47:34;99942.79;;;16.47;69.65
76728;BME280;65652;53.132;18.026;2023-04-24T06:50:00;99948.20;;;16.49;68.33
76728;BME280;65652;53.132;18.026;2023-04-24T06:52:26;99945.61;;;16.48;67.66
76728;BME280;65652;53.132;18.026;2023-04-24T06:54:52;99943.27;;;16.52;67.90
76728;BME280;65652;53.132;18.026;2023-04-24T06:57:19;99942.33;;;16.57;67.68
76728;BME280;65652;53.132;18.026;2023-04-24T06:59:45;99940.46;;;16.64;66.92
76728;BME280;65652;53.132;18.026;2023-04-24T07:02:11;99935.08;;;16.71;66.98
76728;BME280;65652;53.132;18.026;2023-04-24T07:04:37;99936.25;;;16.81;67.19
76728;BME280;65652;53.132;18.026;2023-04-24T07:07:03;99936.89;;;16.89;65.78
76728;BME280;65652;53.132;18.026;2023-04-24T07:09:31;99936.74;;;16.94;65.55
76728;BME280;65652;53.132;18.026;2023-04-24T07:11:57;99934.61;;;17.03;65.60
76728;BME280;65652;53.132;18.026;2023-04-24T07:14:23;99935.02;;;17.11;65.00
76728;BME280;65652;53.132;18.026;2023-04-24T07:16:50;99933.21;;;17.17;64.77
76728;BME280;65652;53.132;18.026;2023-04-24T07:19:16;99932.02;;;17.23;64.52
76728;BME280;65652;53.132;18.026;2023-04-24T07:21:42;99928.63;;;17.24;63.42
76728;BME280;65652;53.132;18.026;2023-04-24T07:24:08;99933.41;;;17.27;63.68
76728;BME280;65652;53.132;18.026;2023-04-24T07:26:38;99926.24;;;17.32;63.26
76728;BME280;65652;53.132;18.026;2023-04-24T07:29:06;99924.53;;;17.34;62.03
76728;BME280;65652;53.132;18.026;2023-04-24T07:31:33;99930.09;;;17.38;61.79
76728;BME280;65652;53.132;18.026;2023-04-24T07:33:59;99930.55;;;17.40;61.67
76728;BME280;65652;53.132;18.026;2023-04-24T07:36:25;99937.17;;;17.37;60.47
76728;BME280;65652;53.132;18.026;2023-04-24T07:38:51;99932.35;;;17.33;60.83
76728;BME280;65652;53.132;18.026;2023-04-24T07:41:18;99927.80;;;17.31;59.64
76728;BME280;65652;53.132;18.026;2023-04-24T07:43:44;99927.89;;;17.32;60.61
76728;BME280;65652;53.132;18.026;2023-04-24T07:46:11;99919.85;;;17.36;60.43
76728;BME280;65652;53.132;18.026;2023-04-24T07:48:37;99915.13;;;17.39;59.22
76728;BME280;65652;53.132;18.026;2023-04-24T07:51:03;99918.05;;;17.44;59.46
76728;BME280;65652;53.132;18.026;2023-04-24T07:53:30;99923.98;;;17.50;59.06
76728;BME280;65652;53.132;18.026;2023-04-24T07:55:56;99922.20;;;17.53;59.57
76728;BME280;65652;53.132;18.026;2023-04-24T07:58:22;99922.96;;;17.57;58.94
76728;BME280;65652;53.132;18.026;2023-04-24T08:00:48;99926.59;;;17.58;58.77
76728;BME280;65652;53.132;18.026;2023-04-24T08:03:14;99923.02;;;17.60;58.90
76728;BME280;65652;53.132;18.026;2023-04-24T08:05:44;99920.77;;;17.66;58.67
76728;BME280;65652;53.132;18.026;2023-04-24T08:08:10;99922.65;;;17.73;58.24
76728;BME280;65652;53.132;18.026;2023-04-24T08:10:36;99922.57;;;17.82;57.46
76728;BME280;65652;53.132;18.026;2023-04-24T08:13:02;99922.48;;;17.91;57.99
76728;BME280;65652;53.132;18.026;2023-04-24T08:15:28;99922.94;;;18.02;58.35
76728;BME280;65652;53.132;18.026;2023-04-24T08:17:54;99925.08;;;18.20;57.59
76728;BME280;65652;53.132;18.026;2023-04-24T08:20:21;99922.27;;;18.36;57.37
76728;BME280;65652;53.132;18.026;2023-04-24T08:22:47;99919.65;;;18.51;56.68
76728;BME280;65652;53.132;18.026;2023-04-24T08:25:14;99920.42;;;18.69;56.62
76728;BME280;65652;53.132;18.026;2023-04-24T08:27:40;99918.93;;;18.80;56.24
76728;BME280;65652;53.132;18.026;2023-04-24T08:30:07;99916.64;;;18.93;55.97
76728;BME280;65652;53.132;18.026;2023-04-24T08:32:33;99914.95;;;19.13;54.35
76728;BME280;65652;53.132;18.026;2023-04-24T08:34:59;99912.03;;;19.20;54.81
76728;BME280;65652;53.132;18.026;2023-04-24T08:37:26;99908.73;;;19.29;53.73
76728;BME280;65652;53.132;18.026;2023-04-24T08:39:53;99909.03;;;19.26;53.83
76728;BME280;65652;53.132;18.026;2023-04-24T08:42:20;99911.14;;;19.27;54.33
76728;BME280;65652;53.132;18.026;2023-04-24T08:44:48;99911.14;;;19.25;53.73
76728;BME280;65652;53.132;18.026;2023-04-24T08:47:15;99904.89;;;19.20;52.52
76728;BME280;65652;53.132;18.026;2023-04-24T08:49:42;99904.38;;;19.11;52.77
76728;BME280;65652;53.132;18.026;2023-04-24T08:52:08;99905.64;;;19.05;52.79
76728;BME280;65652;53.132;18.026;2023-04-24T08:54:35;99910.32;;;19.01;52.17
76728;BME280;65652;53.132;18.026;2023-04-24T08:57:02;99913.83;;;18.95;51.96
76728;BME280;65652;53.132;18.026;2023-04-24T08:59:31;99909.45;;;18.92;52.01
76728;BME280;65652;53.132;18.026;2023-04-24T09:01:57;99915.18;;;18.88;52.11
76728;BME280;65652;53.132;18.026;2023-04-24T09:04:24;99914.40;;;18.86;52.43
76728;BME280;65652;53.132;18.026;2023-04-24T09:06:58;99914.30;;;18.85;52.63
76728;BME280;65652;53.132;18.026;2023-04-24T09:09:25;99915.71;;;18.84;52.64
76728;BME280;65652;53.132;18.026;2023-04-24T09:11:52;99915.70;;;18.78;51.80
76728;BME280;65652;53.132;18.026;2023-04-24T09:14:21;99923.58;;;18.70;52.10
76728;BME280;65652;53.132;18.026;2023-04-24T09:16:50;99921.97;;;18.56;52.01
76728;BME280;65652;53.132;18.026;2023-04-24T09:19:16;99926.24;;;18.46;52.40
76728;BME280;65652;53.132;18.026;2023-04-24T09:21:46;99925.80;;;18.39;52.77
76728;BME280;65652;53.132;18.026;2023-04-24T09:24:18;99925.36;;;18.32;53.71
76728;BME280;65652;53.132;18.026;2023-04-24T09:26:46;99930.39;;;18.29;53.83
76728;BME280;65652;53.132;18.026;2023-04-24T09:29:16;99924.79;;;18.20;53.71
76728;BME280;65652;53.132;18.026;2023-04-24T09:31:43;99921.39;;;18.16;53.35
76728;BME280;65652;53.132;18.026;2023-04-24T09:34:10;99920.41;;;18.17;53.69
76728;BME280;65652;53.132;18.026;2023-04-24T09:36:39;99919.70;;;18.20;53.59
76728;BME280;65652;53.132;18.026;2023-04-24T09:39:12;99916.84;;;18.22;53.68
76728;BME280;65652;53.132;18.026;2023-04-24T09:41:58;99905.84;;;18.29;54.11
76728;BME280;65652;53.132;18.026;2023-04-24T09:44:27;99905.95;;;18.40;54.30
76728;BME280;65652;53.132;18.026;2023-04-24T09:46:58;99901.49;;;18.54;53.84
76728;BME280;65652;53.132;18.026;2023-04-24T09:49:30;99897.45;;;18.83;53.47
76728;BME280;65652;53.132;18.026;2023-04-24T09:52:04;99898.23;;;19.15;52.95
76728;BME280;65652;53.132;18.026;2023-04-24T09:54:30;99893.76;;;19.50;52.68
76728;BME280;65652;53.132;18.026;2023-04-24T09:56:57;99893.34;;;19.71;52.64
76728;BME280;65652;53.132;18.026;2023-04-24T09:59:23;99889.95;;;19.89;52.02
76728;BME280;65652;53.132;18.026;2023-04-24T10:01:49;99882.98;;;20.08;51.73
76728;BME280;65652;53.132;18.026;2023-04-24T10:06:43;99875.02;;;20.37;50.76
76728;BME280;65652;53.132;18.026;2023-04-24T10:09:10;99873.02;;;20.41;50.18
76728;BME280;65652;53.132;18.026;2023-04-24T10:11:41;99877.98;;;20.41;49.68
76728;BME280;65652;53.132;18.026;2023-04-24T10:14:10;99872.36;;;20.33;49.55
76728;BME280;65652;53.132;18.026;2023-04-24T10:16:39;99863.95;;;20.27;49.70
76728;BME280;65652;53.132;18.026;2023-04-24T10:19:06;99852.84;;;20.24;49.17
76728;BME280;65652;53.132;18.026;2023-04-24T10:21:34;99847.77;;;20.27;49.41
76728;BME280;65652;53.132;18.026;2023-04-24T10:24:00;99863.45;;;20.35;49.49
76728;BME280;65652;53.132;18.026;2023-04-24T10:26:29;99869.60;;;20.37;49.00
76728;BME280;65652;53.132;18.026;2023-04-24T10:28:57;99864.34;;;20.40;48.96
76728;BME280;65652;53.132;18.026;2023-04-24T10:31:25;99862.13;;;20.51;48.10
76728;BME280;65652;53.132;18.026;2023-04-24T10:33:52;99863.63;;;20.76;48.32
76728;BME280;65652;53.132;18.026;2023-04-24T10:36:22;99858.80;;;20.96;48.42
76728;BME280;65652;53.132;18.026;2023-04-24T10:38:49;99859.27;;;21.20;48.09
76728;BME280;65652;53.132;18.026;2023-04-24T10:41:17;99856.44;;;21.45;48.05
76728;BME280;65652;53.132;18.026;2023-04-24T10:44:07;99858.17;;;21.82;47.45
76728;BME280;65652;53.132;18.026;2023-04-24T10:46:33;99859.48;;;22.40;46.36
76728;BME280;65652;53.132;18.026;2023-04-24T10:49:03;99863.13;;;22.96;46.11
76728;BME280;65652;53.132;18.026;2023-04-24T10:51:47;99856.45;;;23.56;45.51
76728;BME280;65652;53.132;18.026;2023-04-24T10:54:35;99850.83;;;24.28;44.52
76728;BME280;65652;53.132;18.026;2023-04-24T10:59:49;99847.69;;;25.29;42.24
76728;BME280;65652;53.132;18.026;2023-04-24T11:02:17;99841.55;;;25.54;42.16
76728;BME280;65652;53.132;18.026;2023-04-24T11:04:44;99845.80;;;26.10;41.18
76728;BME280;65652;53.132;18.026;2023-04-24T11:07:11;99846.73;;;26.49;39.26
76728;BME280;65652;53.132;18.026;2023-04-24T11:09:37;99847.86;;;26.19;38.69
76728;BME280;65652;53.132;18.026;2023-04-24T11:12:07;99848.09;;;25.64;38.64
76728;BME280;65652;53.132;18.026;2023-04-24T11:17:32;99849.11;;;24.51;40.93
76728;BME280;65652;53.132;18.026;2023-04-24T11:20:07;99847.70;;;24.30;41.58
76728;BME280;65652;53.132;18.026;2023-04-24T11:22:37;99853.04;;;24.32;42.18
76728;BME280;65652;53.132;18.026;2023-04-24T11:25:05;99860.74;;;24.55;41.98
76728;BME280;65652;53.132;18.026;2023-04-24T11:27:40;99864.09;;;24.74;41.01
76728;BME280;65652;53.132;18.026;2023-04-24T11:30:06;99869.92;;;24.64;40.35
76728;BME280;65652;53.132;18.026;2023-04-24T11:37:46;99868.38;;;24.51;40.95
76728;BME280;65652;53.132;18.026;2023-04-24T11:40:16;99862.30;;;24.96;40.25
76728;BME280;65652;53.132;18.026;2023-04-24T11:42:44;99860.79;;;25.39;39.91
76728;BME280;65652;53.132;18.026;2023-04-24T11:45:15;99857.39;;;25.73;39.36
76728;BME280;65652;53.132;18.026;2023-04-24T11:47:43;99858.58;;;25.91;39.25
76728;BME280;65652;53.132;18.026;2023-04-24T11:50:12;99859.96;;;26.01;39.16
76728;BME280;65652;53.132;18.026;2023-04-24T11:52:43;99872.81;;;26.20;38.75
76728;BME280;65652;53.132;18.026;2023-04-24T11:57:43;99863.10;;;26.21;37.92
76728;BME280;65652;53.132;18.026;2023-04-24T12:00:21;99861.93;;;26.14;37.87
76728;BME280;65652;53.132;18.026;2023-04-24T12:02:48;99856.08;;;26.03;38.27
76728;BME280;65652;53.132;18.026;2023-04-24T12:05:28;99853.70;;;26.04;38.04
76728;BME280;65652;53.132;18.026;2023-04-24T12:07:56;99838.27;;;26.21;37.60
76728;BME280;65652;53.132;18.026;2023-04-24T12:10:27;99835.11;;;26.45;36.98
76728;BME280;65652;53.132;18.026;2023-04-24T12:12:56;99843.58;;;26.62;36.13
76728;BME280;65652;53.132;18.026;2023-04-24T12:15:23;99837.52;;;26.32;36.44
76728;BME280;65652;53.132;18.026;2023-04-24T12:17:53;99839.61;;;25.94;36.93
76728;BME280;65652;53.132;18.026;2023-04-24T12:20:30;99854.61;;;25.42;37.36
76728;BME280;65652;53.132;18.026;2023-04-24T12:22:59;99843.34;;;24.81;37.52
76728;BME280;65652;53.132;18.026;2023-04-24T12:25:29;99839.51;;;24.38;38.37
76728;BME280;65652;53.132;18.026;2023-04-24T12:30:29;99844.90;;;24.51;38.60
76728;BME280;65652;53.132;18.026;2023-04-24T12:32:57;99837.83;;;24.30;38.64
76728;BME280;65652;53.132;18.026;2023-04-24T12:35:27;99831.16;;;23.92;37.92
76728;BME280;65652;53.132;18.026;2023-04-24T12:37:53;99833.98;;;23.53;38.89
76728;BME280;65652;53.132;18.026;2023-04-24T12:40:21;99838.46;;;23.32;38.95
76728;BME280;65652;53.132;18.026;2023-04-24T12:42:50;99830.88;;;23.03;38.83
76728;BME280;65652;53.132;18.026;2023-04-24T12:45:18;99828.58;;;22.77;39.54
76728;BME280;65652;53.132;18.026;2023-04-24T12:47:45;99829.58;;;22.64;40.02
76728;BME280;65652;53.132;18.026;2023-04-24T12:50:14;99824.60;;;22.49;40.64
76728;BME280;65652;53.132;18.026;2023-04-24T12:52:41;99829.70;;;22.43;41.52
76728;BME280;65652;53.132;18.026;2023-04-24T12:55:07;99826.61;;;22.53;41.65
76728;BME280;65652;53.132;18.026;2023-04-24T12:57:36;99828.27;;;22.78;41.59
76728;BME280;65652;53.132;18.026;2023-04-24T13:00:03;99825.39;;;22.86;41.45
76728;BME280;65652;53.132;18.026;2023-04-24T13:02:31;99819.00;;;22.75;41.11
76728;BME280;65652;53.132;18.026;2023-04-24T13:04:58;99831.96;;;22.52;40.38
76728;BME280;65652;53.132;18.026;2023-04-24T13:07:25;99824.31;;;22.27;40.48